createdAt,value
2019-04-22T08:14:24.170Z,65.94
2019-04-22T08:24:35.590Z,66.17
2019-04-22T08:29:46.928Z,65.43
2019-04-22T08:34:42.178Z,65.43
2019-04-22T08:40:15.460Z,65.20
2019-04-22T08:56:35.181Z,64.19
2019-04-22T09:01:35.488Z,64.02
2019-04-22T09:07:01.962Z,64.10
2019-04-22T09:11:57.737Z,64.37
2019-04-22T09:16:56.389Z,64.00
2019-04-22T09:22:08.244Z,64.23
2019-04-22T09:27:23.373Z,60.18
2019-04-22T09:32:20.245Z,56.09
2019-04-22T09:37:34.115Z,55.36
2019-04-22T09:42:31.829Z,55.34
2019-04-22T09:52:51.453Z,52.94
2019-04-22T09:57:55.685Z,52.87
2019-04-22T10:08:16.591Z,53.77
2019-04-22T10:13:23.682Z,53.63
2019-04-22T10:18:25.951Z,54.34
2019-04-22T10:23:31.811Z,54.34
2019-04-22T10:28:44.520Z,55.10
2019-04-22T10:33:36.303Z,54.83
2019-04-22T10:38:28.257Z,55.96
2019-04-22T10:43:34.967Z,56.22
2019-04-22T10:48:42.101Z,55.88
2019-04-22T10:53:47.477Z,55.36
2019-04-22T10:58:53.179Z,55.24
2019-04-22T11:03:59.610Z,54.83
2019-04-22T11:09:08.694Z,54.82
2019-04-22T11:14:14.904Z,55.23
2019-04-22T11:19:21.401Z,55.78
2019-04-22T11:24:26.841Z,54.59
2019-04-22T11:29:32.194Z,54.87
2019-04-22T11:34:37.780Z,54.24
2019-04-22T11:39:44.777Z,54.58
2019-04-22T11:44:50.979Z,54.84
2019-04-22T11:49:57.680Z,56.00
2019-04-22T11:55:10.884Z,55.78
2019-04-22T12:00:20.959Z,55.35
2019-04-22T12:05:28.053Z,54.34
2019-04-22T12:10:42.450Z,54.14
2019-04-22T12:15:40.954Z,53.20
2019-04-22T12:20:47.426Z,52.86
2019-04-22T12:26:00.913Z,52.76
2019-04-22T12:31:01.655Z,52.88
2019-04-22T12:36:08.932Z,53.22
2019-04-22T12:41:15.920Z,52.83
2019-04-22T12:46:21.312Z,53.04
2019-04-22T12:51:27.251Z,52.89
2019-04-22T12:56:33.425Z,52.06
2019-04-22T13:01:39.166Z,51.91
2019-04-22T13:06:46.048Z,51.87
2019-04-22T13:11:52.964Z,52.06
2019-04-22T13:16:59.697Z,49.83
2019-04-22T13:22:07.054Z,46.98
2019-04-22T13:27:12.961Z,42.57
2019-04-22T13:32:18.709Z,41.12
2019-04-22T13:37:25.296Z,42.69
2019-04-22T13:42:31.514Z,41.69
2019-04-22T13:47:56.223Z,41.20
2019-04-22T13:58:02.569Z,40.02
2019-04-22T14:03:16.431Z,39.73
2019-04-22T14:08:23.000Z,37.99
2019-04-22T14:13:30.057Z,38.39
2019-04-22T14:18:37.050Z,40.87
2019-04-22T14:23:42.570Z,38.71
2019-04-22T14:28:48.088Z,37.94
2019-04-22T14:33:57.373Z,36.28
2019-04-22T14:39:02.036Z,37.13
2019-04-22T14:49:44.847Z,36.68
2019-04-22T14:54:37.745Z,34.63
2019-04-22T14:59:32.611Z,34.45
2019-04-22T15:04:39.277Z,34.45
2019-04-22T15:09:46.022Z,34.50
2019-04-22T15:14:53.113Z,34.78
2019-04-22T15:20:16.328Z,34.26
2019-04-22T15:25:22.864Z,33.85
2019-04-22T15:30:29.654Z,36.87
2019-04-22T15:35:37.360Z,36.68
2019-04-22T15:40:43.099Z,36.04
2019-04-22T15:45:48.730Z,38.31
2019-04-22T15:50:54.982Z,38.01
2019-04-22T15:56:03.083Z,36.09
2019-04-22T16:01:16.226Z,35.91
2019-04-22T16:06:15.791Z,37.08
2019-04-22T16:11:22.270Z,41.92
2019-04-22T16:16:28.404Z,45.14
2019-04-22T16:21:45.180Z,46.42
2019-04-22T16:26:44.398Z,46.76
2019-04-22T16:31:51.363Z,46.45
2019-04-22T16:36:57.120Z,45.97
2019-04-22T16:42:02.708Z,40.33
2019-04-22T16:47:09.933Z,39.00
2019-04-22T16:52:16.270Z,38.81
2019-04-22T16:57:21.974Z,38.95
2019-04-22T17:02:43.219Z,39.20
2019-04-22T17:07:48.315Z,39.74
2019-04-22T17:13:01.497Z,40.41
2019-04-22T17:18:01.287Z,40.16
2019-04-22T17:23:07.461Z,40.13
2019-04-22T17:28:13.307Z,40.40
2019-04-22T17:33:19.111Z,40.44
2019-04-22T17:38:36.183Z,40.56
2019-04-22T17:49:10.941Z,41.26
2019-04-22T17:54:21.405Z,41.27
2019-04-22T17:59:29.499Z,42.36
2019-04-22T18:04:13.923Z,44.13
2019-04-22T18:10:10.747Z,43.25
2019-04-22T18:14:54.804Z,43.30
2019-04-22T18:19:52.034Z,43.65
2019-04-22T18:24:58.335Z,43.63
2019-04-22T18:30:04.007Z,43.43
2019-04-22T18:35:14.279Z,44.04
2019-04-22T18:40:25.993Z,43.93
2019-04-22T18:45:40.475Z,44.56
2019-04-22T18:51:07.753Z,44.33
2019-04-22T18:56:13.926Z,44.43
2019-04-22T19:00:57.768Z,44.77
2019-04-22T19:06:36.842Z,45.20
2019-04-22T19:11:34.171Z,45.27
2019-04-22T19:16:39.863Z,45.58
2019-04-22T19:21:47.697Z,46.00
2019-04-22T19:32:05.174Z,46.58
2019-04-22T19:37:10.903Z,47.11
2019-04-22T19:42:27.051Z,47.42
2019-04-22T19:52:35.793Z,47.42
2019-04-22T19:57:33.977Z,47.63
2019-04-22T20:02:51.420Z,47.97
2019-04-22T20:07:49.679Z,48.12
2019-04-22T20:13:07.623Z,48.11
2019-04-22T20:18:27.013Z,48.24
2019-04-22T20:23:15.910Z,48.43
2019-04-22T20:28:31.818Z,48.29
2019-04-22T20:33:36.979Z,48.53
2019-04-22T20:38:39.900Z,48.83
2019-04-22T20:43:54.641Z,48.93
2019-04-22T20:49:05.093Z,48.88
2019-04-22T20:54:09.001Z,49.03
2019-04-22T20:59:08.685Z,48.85
2019-04-22T21:04:01.532Z,48.78
2019-04-22T21:09:25.411Z,48.90
2019-04-22T21:14:32.285Z,48.92
2019-04-22T21:19:53.205Z,48.96
2019-04-22T21:24:49.226Z,49.18
2019-04-22T21:29:49.645Z,49.51
2019-04-22T21:35:05.779Z,49.86
2019-04-22T21:40:16.419Z,49.84
2019-04-22T21:45:16.668Z,49.01
2019-04-22T21:50:41.561Z,48.36
2019-04-22T21:55:45.038Z,48.18
2019-04-22T22:01:02.471Z,47.88
2019-04-22T22:05:49.134Z,47.84
2019-04-22T22:11:02.635Z,47.86
2019-04-22T22:16:06.673Z,47.97
2019-04-22T22:21:38.100Z,47.77
2019-04-22T22:26:18.625Z,47.94
2019-04-22T22:31:34.633Z,48.01
2019-04-22T22:36:35.148Z,48.22
2019-04-22T22:41:29.872Z,48.32
2019-04-22T22:46:52.060Z,48.48
2019-04-22T22:52:32.966Z,48.51
2019-04-22T22:57:17.463Z,48.65
2019-04-22T23:02:20.417Z,48.81
2019-04-22T23:07:28.861Z,48.81
2019-04-22T23:12:40.869Z,49.10
2019-04-22T23:17:25.698Z,49.17
2019-04-22T23:22:36.092Z,49.63
2019-04-22T23:28:01.526Z,49.63
2019-04-22T23:33:09.870Z,49.84
2019-04-22T23:38:23.154Z,49.91
2019-04-22T23:43:32.657Z,50.16
2019-04-22T23:48:29.445Z,50.13
2019-04-22T23:58:57.886Z,50.14
